Little Creek, Mississippi
Current Conditions -  °F | °C
As of 12:53 AM on Sunday 23 Nov 2014 (Local Time) from KHBG Reporting Station
Overcast Overcast  
Wind Chill: 62°   Ceiling: 800
Heat Index: 62°   Visibility: 10mi
Dew Point: 58°   Wind: 8mph
Humidity: 86%   Direction: 110°ESE
Pressure: 29.92"   Gusts: NA
Location:  31.0408°N, 88.8997°W
Report Text: KHBG 230653Z AUTO 11007KT 10SM OVC008 17/14 A2992 RMK AO2 SLP128 T01670144
Loading
Personal Weather Stations






























Interactive Weather Map New forecast layout! Learn more

10-Day Weather Forecast

Advertisements
Track Severe Weather on mobile